sensor_id;sensor_type;location;lat;lon;timestamp;pressure;altitude;pressure_sealevel;temperature;humidity
72024;BME280;59889;50.700;5.440;2023-07-13T00:00:09;100015.51;;;28.86;24.27
72024;BME280;59889;50.700;5.440;2023-07-13T00:02:34;100016.51;;;29.20;24.23
72024;BME280;59889;50.700;5.440;2023-07-13T00:04:59;100020.58;;;28.90;24.25
72024;BME280;59889;50.700;5.440;2023-07-13T00:07:25;100022.28;;;29.08;24.13
72024;BME280;59889;50.700;5.440;2023-07-13T00:09:51;100023.00;;;28.99;24.22
72024;BME280;59889;50.700;5.440;2023-07-13T00:12:25;100026.00;;;29.25;24.20
72024;BME280;59889;50.700;5.440;2023-07-13T00:14:43;100020.00;;;29.11;24.12
72024;BME280;59889;50.700;5.440;2023-07-13T00:17:08;100019.08;;;28.96;24.27
72024;BME280;59889;50.700;5.440;2023-07-13T00:19:34;100020.82;;;29.01;24.23
72024;BME280;59889;50.700;5.440;2023-07-13T00:22:00;100019.83;;;28.86;24.35
72024;BME280;59889;50.700;5.440;2023-07-13T00:24:26;100019.32;;;29.00;24.24
72024;BME280;59889;50.700;5.440;2023-07-13T00:26:52;100020.14;;;28.87;24.37
72024;BME280;59889;50.700;5.440;2023-07-13T00:29:18;100020.76;;;29.11;24.41
72024;BME280;59889;50.700;5.440;2023-07-13T00:31:43;100019.60;;;28.79;24.47
72024;BME280;59889;50.700;5.440;2023-07-13T00:34:09;100022.76;;;28.94;24.34
72024;BME280;59889;50.700;5.440;2023-07-13T00:36:35;100025.54;;;28.80;24.47
72024;BME280;59889;50.700;5.440;2023-07-13T00:39:01;100028.52;;;29.04;24.27
72024;BME280;59889;50.700;5.440;2023-07-13T00:41:27;100026.75;;;28.86;24.45
72024;BME280;59889;50.700;5.440;2023-07-13T00:43:53;100030.88;;;29.03;24.30
72024;BME280;59889;50.700;5.440;2023-07-13T00:46:22;100032.52;;;29.23;24.34
72024;BME280;59889;50.700;5.440;2023-07-13T00:48:46;100033.78;;;29.19;24.39
72024;BME280;59889;50.700;5.440;2023-07-13T00:51:10;100031.25;;;28.83;24.48
72024;BME280;59889;50.700;5.440;2023-07-13T00:53:36;100031.80;;;28.92;24.43
72024;BME280;59889;50.700;5.440;2023-07-13T00:56:03;100028.93;;;28.77;24.55
72024;BME280;59889;50.700;5.440;2023-07-13T00:58:28;100029.43;;;28.97;24.61
72024;BME280;59889;50.700;5.440;2023-07-13T01:00:53;100029.23;;;28.93;24.43
72024;BME280;59889;50.700;5.440;2023-07-13T01:03:19;100029.15;;;28.90;24.70
72024;BME280;59889;50.700;5.440;2023-07-13T01:05:47;100029.83;;;28.93;24.66
72024;BME280;59889;50.700;5.440;2023-07-13T01:08:11;100039.46;;;28.84;24.54
72024;BME280;59889;50.700;5.440;2023-07-13T01:10:37;100040.83;;;29.05;24.39
72024;BME280;59889;50.700;5.440;2023-07-13T01:13:02;100039.04;;;28.90;24.52
72024;BME280;59889;50.700;5.440;2023-07-13T01:15:37;100035.51;;;28.97;24.65
72024;BME280;59889;50.700;5.440;2023-07-13T01:17:54;100034.41;;;29.01;24.41
72024;BME280;59889;50.700;5.440;2023-07-13T01:20:20;100032.48;;;28.94;24.49
72024;BME280;59889;50.700;5.440;2023-07-13T01:22:46;100033.47;;;28.92;24.51
72024;BME280;59889;50.700;5.440;2023-07-13T01:25:11;100035.74;;;28.96;24.50
72024;BME280;59889;50.700;5.440;2023-07-13T01:27:37;100035.42;;;28.81;24.64
72024;BME280;59889;50.700;5.440;2023-07-13T01:30:04;100034.50;;;28.92;24.55
72024;BME280;59889;50.700;5.440;2023-07-13T01:32:29;100034.92;;;29.01;24.47
72024;BME280;59889;50.700;5.440;2023-07-13T01:34:55;100034.72;;;28.93;24.79
72024;BME280;59889;50.700;5.440;2023-07-13T01:37:21;100031.98;;;29.29;24.68
72024;BME280;59889;50.700;5.440;2023-07-13T01:39:47;100031.23;;;29.03;24.45
72024;BME280;59889;50.700;5.440;2023-07-13T01:42:12;100029.82;;;29.00;24.50
72024;BME280;59889;50.700;5.440;2023-07-13T01:44:38;100025.03;;;28.85;24.62
72024;BME280;59889;50.700;5.440;2023-07-13T01:47:05;100021.95;;;29.04;24.47
72024;BME280;59889;50.700;5.440;2023-07-13T01:49:30;100025.09;;;29.23;24.52
72024;BME280;59889;50.700;5.440;2023-07-13T01:51:55;100025.39;;;29.06;24.68
72024;BME280;59889;50.700;5.440;2023-07-13T01:54:21;100025.44;;;29.22;24.53
72024;BME280;59889;50.700;5.440;2023-07-13T01:56:47;100023.34;;;28.81;24.71
72024;BME280;59889;50.700;5.440;2023-07-13T01:59:13;100020.51;;;28.92;24.83
72024;BME280;59889;50.700;5.440;2023-07-13T02:01:39;100018.70;;;28.91;24.64
72024;BME280;59889;50.700;5.440;2023-07-13T02:04:05;100019.00;;;29.10;24.68
72024;BME280;59889;50.700;5.440;2023-07-13T02:06:30;100031.10;;;28.58;24.96
72024;BME280;59889;50.700;5.440;2023-07-13T02:08:58;100032.53;;;28.99;24.79
72024;BME280;59889;50.700;5.440;2023-07-13T02:11:22;100034.95;;;28.92;24.87
72024;BME280;59889;50.700;5.440;2023-07-13T02:13:48;100031.14;;;28.94;24.87
72024;BME280;59889;50.700;5.440;2023-07-13T02:16:14;100023.87;;;28.72;24.82
72024;BME280;59889;50.700;5.440;2023-07-13T02:18:40;100021.82;;;28.70;24.86
72024;BME280;59889;50.700;5.440;2023-07-13T02:21:06;100025.33;;;28.58;24.99
72024;BME280;59889;50.700;5.440;2023-07-13T02:23:31;100030.11;;;28.68;24.90
72024;BME280;59889;50.700;5.440;2023-07-13T02:25:59;100034.74;;;28.92;24.90
72024;BME280;59889;50.700;5.440;2023-07-13T02:28:23;100034.16;;;28.85;24.99
72024;BME280;59889;50.700;5.440;2023-07-13T02:30:49;100032.72;;;28.95;24.67
72024;BME280;59889;50.700;5.440;2023-07-13T02:33:14;100028.47;;;29.07;24.77
72024;BME280;59889;50.700;5.440;2023-07-13T02:35:40;100031.27;;;28.65;24.97
72024;BME280;59889;50.700;5.440;2023-07-13T02:38:06;100031.67;;;29.02;24.84
72024;BME280;59889;50.700;5.440;2023-07-13T02:40:32;100033.73;;;28.74;24.88
72024;BME280;59889;50.700;5.440;2023-07-13T02:42:58;100039.98;;;28.61;25.00
72024;BME280;59889;50.700;5.440;2023-07-13T02:45:24;100043.39;;;28.61;25.01
72024;BME280;59889;50.700;5.440;2023-07-13T02:47:49;100045.08;;;28.87;25.01
72024;BME280;59889;50.700;5.440;2023-07-13T02:50:15;100046.29;;;28.69;24.95
72024;BME280;59889;50.700;5.440;2023-07-13T02:52:41;100046.00;;;28.86;25.01
72024;BME280;59889;50.700;5.440;2023-07-13T02:55:08;100047.86;;;28.62;25.04
72024;BME280;59889;50.700;5.440;2023-07-13T02:57:33;100048.46;;;28.76;25.14
72024;BME280;59889;50.700;5.440;2023-07-13T02:59:59;100053.06;;;28.81;25.10
72024;BME280;59889;50.700;5.440;2023-07-13T03:02:24;100054.51;;;28.59;25.08
72024;BME280;59889;50.700;5.440;2023-07-13T03:04:50;100050.82;;;28.87;24.84
72024;BME280;59889;50.700;5.440;2023-07-13T03:07:16;100053.06;;;28.87;25.04
72024;BME280;59889;50.700;5.440;2023-07-13T03:09:42;100054.71;;;28.95;24.98
72024;BME280;59889;50.700;5.440;2023-07-13T03:12:08;100056.61;;;28.78;24.92
72024;BME280;59889;50.700;5.440;2023-07-13T03:14:33;100058.02;;;28.90;25.03
72024;BME280;59889;50.700;5.440;2023-07-13T03:16:59;100061.11;;;28.78;24.92
72024;BME280;59889;50.700;5.440;2023-07-13T03:19:25;100067.36;;;28.77;25.18
72024;BME280;59889;50.700;5.440;2023-07-13T03:21:51;100064.52;;;28.61;25.09
72024;BME280;59889;50.700;5.440;2023-07-13T03:24:17;100066.21;;;28.57;25.15
72024;BME280;59889;50.700;5.440;2023-07-13T03:26:42;100066.24;;;28.69;25.26
72024;BME280;59889;50.700;5.440;2023-07-13T03:29:08;100067.19;;;28.48;25.24
72024;BME280;59889;50.700;5.440;2023-07-13T03:31:36;100069.01;;;28.60;25.14
72024;BME280;59889;50.700;5.440;2023-07-13T03:34:00;100071.50;;;28.72;25.03
72024;BME280;59889;50.700;5.440;2023-07-13T03:36:28;100076.28;;;28.60;25.15
72024;BME280;59889;50.700;5.440;2023-07-13T03:38:54;100079.59;;;28.55;25.21
72024;BME280;59889;50.700;5.440;2023-07-13T03:41:18;100077.22;;;28.55;25.20
72024;BME280;59889;50.700;5.440;2023-07-13T03:43:43;100076.96;;;28.78;25.21
72024;BME280;59889;50.700;5.440;2023-07-13T03:46:09;100079.91;;;28.57;25.20
72024;BME280;59889;50.700;5.440;2023-07-13T03:48:35;100077.82;;;28.96;25.04
72024;BME280;59889;50.700;5.440;2023-07-13T03:51:01;100077.48;;;28.77;25.24
72024;BME280;59889;50.700;5.440;2023-07-13T03:53:27;100076.23;;;28.85;25.18
72024;BME280;59889;50.700;5.440;2023-07-13T03:55:52;100078.94;;;28.58;25.21
72024;BME280;59889;50.700;5.440;2023-07-13T03:58:27;100081.21;;;29.05;25.21
72024;BME280;59889;50.700;5.440;2023-07-13T04:00:44;100080.39;;;28.84;25.17
72024;BME280;59889;50.700;5.440;2023-07-13T04:03:10;100082.05;;;28.56;25.25
72024;BME280;59889;50.700;5.440;2023-07-13T04:05:36;100083.32;;;28.60;25.56
72024;BME280;59889;50.700;5.440;2023-07-13T04:08:02;100087.86;;;28.78;25.67
72024;BME280;59889;50.700;5.440;2023-07-13T04:10:27;100087.54;;;28.24;26.04
72024;BME280;59889;50.700;5.440;2023-07-13T04:12:53;100089.20;;;28.18;26.00
72024;BME280;59889;50.700;5.440;2023-07-13T04:15:19;100089.83;;;28.38;25.94
72024;BME280;59889;50.700;5.440;2023-07-13T04:17:45;100088.05;;;28.68;26.03
72024;BME280;59889;50.700;5.440;2023-07-13T04:20:11;100090.84;;;28.35;26.34
72024;BME280;59889;50.700;5.440;2023-07-13T04:22:37;100093.67;;;28.44;26.62
72024;BME280;59889;50.700;5.440;2023-07-13T04:25:02;100097.44;;;28.14;26.72
72024;BME280;59889;50.700;5.440;2023-07-13T04:27:28;100095.99;;;28.09;26.96
72024;BME280;59889;50.700;5.440;2023-07-13T04:29:54;100095.03;;;28.25;27.15
72024;BME280;59889;50.700;5.440;2023-07-13T04:32:20;100095.28;;;28.31;27.32
72024;BME280;59889;50.700;5.440;2023-07-13T04:34:46;100097.40;;;27.66;27.38
72024;BME280;59889;50.700;5.440;2023-07-13T04:37:11;100099.06;;;28.30;27.36
72024;BME280;59889;50.700;5.440;2023-07-13T04:39:37;100102.47;;;27.89;27.60
72024;BME280;59889;50.700;5.440;2023-07-13T04:42:04;100103.57;;;27.98;27.51
72024;BME280;59889;50.700;5.440;2023-07-13T04:44:29;100106.73;;;28.12;27.58
72024;BME280;59889;50.700;5.440;2023-07-13T04:46:55;100109.39;;;27.94;27.57
72024;BME280;59889;50.700;5.440;2023-07-13T04:49:21;100112.94;;;27.89;27.66
72024;BME280;59889;50.700;5.440;2023-07-13T04:51:46;100112.54;;;28.18;27.65
72024;BME280;59889;50.700;5.440;2023-07-13T04:54:12;100113.46;;;28.18;27.64
72024;BME280;59889;50.700;5.440;2023-07-13T04:56:38;100118.94;;;27.63;27.63
72024;BME280;59889;50.700;5.440;2023-07-13T04:59:04;100124.46;;;28.13;27.53
72024;BME280;59889;50.700;5.440;2023-07-13T05:01:30;100132.39;;;27.82;27.59
72024;BME280;59889;50.700;5.440;2023-07-13T05:03:56;100137.89;;;27.80;27.60
72024;BME280;59889;50.700;5.440;2023-07-13T05:06:21;100140.01;;;27.95;27.67
72024;BME280;59889;50.700;5.440;2023-07-13T05:08:47;100143.90;;;28.04;27.52
72024;BME280;59889;50.700;5.440;2023-07-13T05:11:13;100143.57;;;28.07;27.54
72024;BME280;59889;50.700;5.440;2023-07-13T05:13:39;100145.82;;;27.80;27.56
72024;BME280;59889;50.700;5.440;2023-07-13T05:16:05;100145.79;;;27.97;27.51
72024;BME280;59889;50.700;5.440;2023-07-13T05:18:31;100142.55;;;28.05;27.28
72024;BME280;59889;50.700;5.440;2023-07-13T05:20:58;100145.66;;;28.15;27.23
72024;BME280;59889;50.700;5.440;2023-07-13T05:23:22;100146.95;;;27.77;27.21
72024;BME280;59889;50.700;5.440;2023-07-13T05:25:48;100150.04;;;27.91;27.04
72024;BME280;59889;50.700;5.440;2023-07-13T05:28:14;100150.60;;;28.05;27.13
72024;BME280;59889;50.700;5.440;2023-07-13T05:30:40;100150.96;;;27.84;27.09
72024;BME280;59889;50.700;5.440;2023-07-13T05:33:06;100148.38;;;27.97;27.10
72024;BME280;59889;50.700;5.440;2023-07-13T05:35:31;100150.98;;;27.96;27.10
72024;BME280;59889;50.700;5.440;2023-07-13T05:37:57;100150.53;;;28.00;27.03
72024;BME280;59889;50.700;5.440;2023-07-13T05:40:23;100155.01;;;27.75;27.05
72024;BME280;59889;50.700;5.440;2023-07-13T05:42:49;100155.79;;;27.97;27.12
72024;BME280;59889;50.700;5.440;2023-07-13T05:45:15;100159.62;;;27.98;27.07
72024;BME280;59889;50.700;5.440;2023-07-13T05:47:40;100155.35;;;27.76;27.21
72024;BME280;59889;50.700;5.440;2023-07-13T05:50:07;100155.39;;;28.00;26.97
72024;BME280;59889;50.700;5.440;2023-07-13T05:52:32;100153.90;;;27.92;27.11
72024;BME280;59889;50.700;5.440;2023-07-13T05:54:58;100153.32;;;27.91;27.10
72024;BME280;59889;50.700;5.440;2023-07-13T05:57:24;100157.92;;;27.96;27.01
72024;BME280;59889;50.700;5.440;2023-07-13T05:59:50;100161.03;;;28.01;26.94
72024;BME280;59889;50.700;5.440;2023-07-13T06:02:15;100159.60;;;28.23;26.95
72024;BME280;59889;50.700;5.440;2023-07-13T06:04:41;100160.93;;;27.92;27.07
72024;BME280;59889;50.700;5.440;2023-07-13T06:07:07;100163.42;;;27.94;27.01
72024;BME280;59889;50.700;5.440;2023-07-13T06:09:33;100165.38;;;27.89;27.05
72024;BME280;59889;50.700;5.440;2023-07-13T06:11:59;100169.72;;;27.59;27.32
72024;BME280;59889;50.700;5.440;2023-07-13T06:14:25;100170.32;;;27.77;27.15
72024;BME280;59889;50.700;5.440;2023-07-13T06:16:50;100176.94;;;27.83;27.12
72024;BME280;59889;50.700;5.440;2023-07-13T06:19:16;100176.90;;;27.75;27.19
72024;BME280;59889;50.700;5.440;2023-07-13T06:21:42;100174.39;;;27.82;27.22
72024;BME280;59889;50.700;5.440;2023-07-13T06:24:08;100176.24;;;27.81;27.16
72024;BME280;59889;50.700;5.440;2023-07-13T06:26:34;100179.95;;;27.84;27.16
72024;BME280;59889;50.700;5.440;2023-07-13T06:29:00;100178.16;;;27.78;27.16
72024;BME280;59889;50.700;5.440;2023-07-13T06:31:25;100177.64;;;27.81;27.08
72024;BME280;59889;50.700;5.440;2023-07-13T06:33:51;100178.86;;;27.83;27.04
72024;BME280;59889;50.700;5.440;2023-07-13T06:36:17;100179.96;;;27.84;27.09
72024;BME280;59889;50.700;5.440;2023-07-13T06:38:43;100180.98;;;27.77;27.15
72024;BME280;59889;50.700;5.440;2023-07-13T06:41:09;100184.24;;;27.81;27.09
72024;BME280;59889;50.700;5.440;2023-07-13T06:43:35;100182.65;;;27.92;26.99
72024;BME280;59889;50.700;5.440;2023-07-13T06:46:00;100182.99;;;27.88;27.16
72024;BME280;59889;50.700;5.440;2023-07-13T06:48:27;100188.48;;;27.87;27.20
72024;BME280;59889;50.700;5.440;2023-07-13T06:50:52;100191.89;;;27.89;27.14
72024;BME280;59889;50.700;5.440;2023-07-13T06:53:19;100191.55;;;27.76;27.28
72024;BME280;59889;50.700;5.440;2023-07-13T06:55:44;100192.80;;;27.84;27.15
72024;BME280;59889;50.700;5.440;2023-07-13T06:58:10;100198.89;;;27.82;27.22
72024;BME280;59889;50.700;5.440;2023-07-13T07:00:35;100196.80;;;27.83;27.21
72024;BME280;59889;50.700;5.440;2023-07-13T07:03:01;100194.57;;;27.65;27.38
72024;BME280;59889;50.700;5.440;2023-07-13T07:05:27;100191.83;;;27.58;27.53
72024;BME280;59889;50.700;5.440;2023-07-13T07:07:54;100196.34;;;27.72;27.45
72024;BME280;59889;50.700;5.440;2023-07-13T07:10:19;100198.73;;;27.96;27.49
72024;BME280;59889;50.700;5.440;2023-07-13T07:12:45;100199.94;;;27.72;27.50
72024;BME280;59889;50.700;5.440;2023-07-13T07:15:10;100200.03;;;27.75;27.46
72024;BME280;59889;50.700;5.440;2023-07-13T07:17:37;100203.20;;;27.78;27.43
72024;BME280;59889;50.700;5.440;2023-07-13T07:20:03;100205.41;;;27.74;27.43
72024;BME280;59889;50.700;5.440;2023-07-13T07:22:28;100203.62;;;27.82;27.40
72024;BME280;59889;50.700;5.440;2023-07-13T07:24:54;100207.32;;;27.81;27.47
72024;BME280;59889;50.700;5.440;2023-07-13T07:27:20;100210.80;;;27.77;27.49
72024;BME280;59889;50.700;5.440;2023-07-13T07:29:46;100208.75;;;27.74;27.50
72024;BME280;59889;50.700;5.440;2023-07-13T07:32:12;100213.11;;;27.70;27.55
72024;BME280;59889;50.700;5.440;2023-07-13T07:34:37;100211.35;;;27.81;27.46
72024;BME280;59889;50.700;5.440;2023-07-13T07:37:04;100207.11;;;27.77;27.48
72024;BME280;59889;50.700;5.440;2023-07-13T07:39:29;100211.82;;;27.81;27.52
72024;BME280;59889;50.700;5.440;2023-07-13T07:41:55;100218.08;;;27.76;27.56
72024;BME280;59889;50.700;5.440;2023-07-13T07:44:21;100215.02;;;27.77;27.55
72024;BME280;59889;50.700;5.440;2023-07-13T07:46:46;100213.10;;;27.79;27.49
72024;BME280;59889;50.700;5.440;2023-07-13T07:49:12;100216.44;;;27.76;27.45
72024;BME280;59889;50.700;5.440;2023-07-13T07:51:38;100213.48;;;27.80;27.42
72024;BME280;59889;50.700;5.440;2023-07-13T07:54:04;100216.10;;;27.85;27.29
72024;BME280;59889;50.700;5.440;2023-07-13T07:56:30;100222.86;;;27.95;27.24
72024;BME280;59889;50.700;5.440;2023-07-13T07:58:56;100217.42;;;27.89;27.31
72024;BME280;59889;50.700;5.440;2023-07-13T08:01:22;100222.51;;;27.76;27.60
72024;BME280;59889;50.700;5.440;2023-07-13T08:03:48;100224.73;;;27.84;27.66
72024;BME280;59889;50.700;5.440;2023-07-13T08:06:13;100222.04;;;27.89;27.70
72024;BME280;59889;50.700;5.440;2023-07-13T08:08:39;100227.75;;;27.67;27.60
72024;BME280;59889;50.700;5.440;2023-07-13T08:11:05;100224.88;;;27.79;27.63
72024;BME280;59889;50.700;5.440;2023-07-13T08:13:30;100227.49;;;28.01;27.66
72024;BME280;59889;50.700;5.440;2023-07-13T08:15:56;100228.81;;;27.79;27.66
72024;BME280;59889;50.700;5.440;2023-07-13T08:18:22;100230.97;;;27.76;27.67
72024;BME280;59889;50.700;5.440;2023-07-13T08:20:48;100231.23;;;27.65;27.80
72024;BME280;59889;50.700;5.440;2023-07-13T08:23:13;100232.11;;;27.64;27.75
72024;BME280;59889;50.700;5.440;2023-07-13T08:25:39;100231.16;;;27.71;27.67
72024;BME280;59889;50.700;5.440;2023-07-13T08:28:05;100228.24;;;27.79;27.60
72024;BME280;59889;50.700;5.440;2023-07-13T08:30:31;100233.06;;;27.76;27.64
72024;BME280;59889;50.700;5.440;2023-07-13T08:32:57;100231.02;;;27.76;27.61
72024;BME280;59889;50.700;5.440;2023-07-13T08:35:23;100228.13;;;27.98;27.59
72024;BME280;59889;50.700;5.440;2023-07-13T08:37:48;100231.95;;;27.69;27.61
72024;BME280;59889;50.700;5.440;2023-07-13T08:40:13;100227.57;;;27.81;27.54
72024;BME280;59889;50.700;5.440;2023-07-13T08:42:42;100229.00;;;27.97;27.37
72024;BME280;59889;50.700;5.440;2023-07-13T08:45:11;100221.39;;;27.84;27.48
72024;BME280;59889;50.700;5.440;2023-07-13T08:47:31;100226.94;;;27.93;27.40
72024;BME280;59889;50.700;5.440;2023-07-13T08:49:56;100225.83;;;27.65;27.45
72024;BME280;59889;50.700;5.440;2023-07-13T08:52:29;100227.01;;;27.70;27.40
72024;BME280;59889;50.700;5.440;2023-07-13T08:54:50;100223.94;;;27.82;27.50
72024;BME280;59889;50.700;5.440;2023-07-13T08:57:17;100220.99;;;27.97;27.41
72024;BME280;59889;50.700;5.440;2023-07-13T08:59:40;100223.94;;;27.91;27.48
72024;BME280;59889;50.700;5.440;2023-07-13T09:02:23;100223.96;;;27.95;27.47
72024;BME280;59889;50.700;5.440;2023-07-13T09:04:35;100224.69;;;27.95;27.49
72024;BME280;59889;50.700;5.440;2023-07-13T09:07:03;100221.02;;;28.12;27.56
72024;BME280;59889;50.700;5.440;2023-07-13T09:09:33;100221.58;;;27.99;27.52
72024;BME280;59889;50.700;5.440;2023-07-13T09:11:55;100223.30;;;27.91;27.58
72024;BME280;59889;50.700;5.440;2023-07-13T09:14:34;100223.01;;;27.88;27.52
72024;BME280;59889;50.700;5.440;2023-07-13T09:16:41;100223.37;;;27.89;27.40
72024;BME280;59889;50.700;5.440;2023-07-13T09:19:11;100223.99;;;27.91;27.23
72024;BME280;59889;50.700;5.440;2023-07-13T09:21:35;100226.62;;;27.88;27.20
72024;BME280;59889;50.700;5.440;2023-07-13T09:24:01;100227.35;;;27.89;27.12
72024;BME280;59889;50.700;5.440;2023-07-13T09:26:26;100227.95;;;27.82;27.14
72024;BME280;59889;50.700;5.440;2023-07-13T09:28:53;100229.43;;;27.87;27.09
72024;BME280;59889;50.700;5.440;2023-07-13T09:31:18;100231.56;;;27.88;27.07
72024;BME280;59889;50.700;5.440;2023-07-13T09:33:42;100232.56;;;27.64;27.04
72024;BME280;59889;50.700;5.440;2023-07-13T09:36:19;100228.70;;;27.84;27.02
72024;BME280;59889;50.700;5.440;2023-07-13T09:38:34;100225.78;;;27.95;26.91
72024;BME280;59889;50.700;5.440;2023-07-13T09:41:05;100224.04;;;27.82;27.10
72024;BME280;59889;50.700;5.440;2023-07-13T09:43:25;100221.76;;;27.87;27.02
72024;BME280;59889;50.700;5.440;2023-07-13T09:45:51;100221.06;;;27.96;26.95
72024;BME280;59889;50.700;5.440;2023-07-13T09:48:18;100225.57;;;27.88;27.00
72024;BME280;59889;50.700;5.440;2023-07-13T09:50:43;100224.26;;;27.83;27.07
72024;BME280;59889;50.700;5.440;2023-07-13T09:53:12;100227.58;;;27.77;27.06
72024;BME280;59889;50.700;5.440;2023-07-13T09:55:36;100244.57;;;27.90;26.91
72024;BME280;59889;50.700;5.440;2023-07-13T09:58:04;100236.35;;;27.75;27.01
72024;BME280;59889;50.700;5.440;2023-07-13T10:00:28;100237.63;;;27.85;26.85
72024;BME280;59889;50.700;5.440;2023-07-13T10:03:00;100245.53;;;27.56;26.88
72024;BME280;59889;50.700;5.440;2023-07-13T10:05:18;100243.58;;;27.88;26.79
72024;BME280;59889;50.700;5.440;2023-07-13T10:07:44;100247.10;;;27.91;26.74
72024;BME280;59889;50.700;5.440;2023-07-13T10:10:15;100243.53;;;27.88;26.76
72024;BME280;59889;50.700;5.440;2023-07-13T10:12:36;100252.15;;;28.12;26.77
72024;BME280;59889;50.700;5.440;2023-07-13T10:15:01;100252.67;;;27.87;26.80
72024;BME280;59889;50.700;5.440;2023-07-13T10:17:29;100252.63;;;27.85;26.87
72024;BME280;59889;50.700;5.440;2023-07-13T10:19:52;100261.86;;;27.87;26.85
72024;BME280;59889;50.700;5.440;2023-07-13T10:22:25;100261.91;;;27.90;26.79
72024;BME280;59889;50.700;5.440;2023-07-13T10:24:44;100260.27;;;27.90;26.79
72024;BME280;59889;50.700;5.440;2023-07-13T10:27:15;100260.04;;;27.84;26.85
72024;BME280;59889;50.700;5.440;2023-07-13T10:29:38;100262.69;;;27.92;26.80
72024;BME280;59889;50.700;5.440;2023-07-13T10:32:02;100264.59;;;27.85;26.86
72024;BME280;59889;50.700;5.440;2023-07-13T10:34:28;100263.52;;;27.85;26.86
72024;BME280;59889;50.700;5.440;2023-07-13T10:36:53;100260.44;;;27.89;26.83
72024;BME280;59889;50.700;5.440;2023-07-13T10:39:21;100256.47;;;27.86;26.90
72024;BME280;59889;50.700;5.440;2023-07-13T10:41:48;100256.34;;;27.87;26.93
72024;BME280;59889;50.700;5.440;2023-07-13T10:44:18;100260.00;;;27.97;26.87
72024;BME280;59889;50.700;5.440;2023-07-13T10:46:37;100269.80;;;28.04;26.82
72024;BME280;59889;50.700;5.440;2023-07-13T10:49:05;100272.71;;;28.03;26.83
72024;BME280;59889;50.700;5.440;2023-07-13T10:51:28;100267.37;;;27.84;26.96
72024;BME280;59889;50.700;5.440;2023-07-13T10:56:26;100268.32;;;27.93;26.83
72024;BME280;59889;50.700;5.440;2023-07-13T10:58:46;100277.27;;;28.05;26.73
72024;BME280;59889;50.700;5.440;2023-07-13T11:01:14;100270.42;;;28.02;26.69
72024;BME280;59889;50.700;5.440;2023-07-13T11:03:47;100277.75;;;28.04;26.61
72024;BME280;59889;50.700;5.440;2023-07-13T11:06:08;100278.53;;;27.91;26.67
72024;BME280;59889;50.700;5.440;2023-07-13T11:08:34;100280.50;;;28.04;26.56
72024;BME280;59889;50.700;5.440;2023-07-13T11:10:55;100279.00;;;27.95;26.61
72024;BME280;59889;50.700;5.440;2023-07-13T11:13:37;100284.38;;;27.94;26.67
72024;BME280;59889;50.700;5.440;2023-07-13T11:15:48;100279.92;;;27.96;26.70
72024;BME280;59889;50.700;5.440;2023-07-13T11:18:21;100279.21;;;27.88;26.90
72024;BME280;59889;50.700;5.440;2023-07-13T11:20:39;100276.79;;;27.58;26.82
72024;BME280;59889;50.700;5.440;2023-07-13T11:25:31;100270.57;;;27.47;26.57
72024;BME280;59889;50.700;5.440;2023-07-13T11:28:13;100274.55;;;27.47;26.70
72024;BME280;59889;50.700;5.440;2023-07-13T11:30:25;100268.67;;;27.54;26.57
72024;BME280;59889;50.700;5.440;2023-07-13T11:32:50;100268.64;;;27.46;26.56
72024;BME280;59889;50.700;5.440;2023-07-13T11:35:15;100265.31;;;27.53;26.37
72024;BME280;59889;50.700;5.440;2023-07-13T11:37:39;100262.76;;;27.77;26.12
72024;BME280;59889;50.700;5.440;2023-07-13T11:42:31;100265.10;;;27.45;26.31
72024;BME280;59889;50.700;5.440;2023-07-13T11:44:56;100261.67;;;27.40;26.23
72024;BME280;59889;50.700;5.440;2023-07-13T11:47:22;100262.57;;;27.33;26.22
72024;BME280;59889;50.700;5.440;2023-07-13T11:49:49;100259.03;;;27.29;26.19
72024;BME280;59889;50.700;5.440;2023-07-13T11:52:16;100264.18;;;27.28;26.16
72024;BME280;59889;50.700;5.440;2023-07-13T11:54:46;100257.27;;;27.22;26.12
72024;BME280;59889;50.700;5.440;2023-07-13T11:57:15;100258.84;;;27.48;26.05
72024;BME280;59889;50.700;5.440;2023-07-13T11:59:31;100261.50;;;27.46;26.08
72024;BME280;59889;50.700;5.440;2023-07-13T12:01:57;100259.51;;;27.57;26.00
72024;BME280;59889;50.700;5.440;2023-07-13T12:04:25;100263.26;;;27.38;25.97
72024;BME280;59889;50.700;5.440;2023-07-13T12:06:56;100262.15;;;27.53;26.00
72024;BME280;59889;50.700;5.440;2023-07-13T12:09:14;100262.09;;;27.50;26.14
72024;BME280;59889;50.700;5.440;2023-07-13T12:11:41;100257.47;;;27.52;26.18
72024;BME280;59889;50.700;5.440;2023-07-13T12:14:10;100261.19;;;27.72;26.22
72024;BME280;59889;50.700;5.440;2023-07-13T12:16:33;100259.30;;;27.10;26.35
72024;BME280;59889;50.700;5.440;2023-07-13T12:18:59;100250.00;;;27.44;26.13
72024;BME280;59889;50.700;5.440;2023-07-13T12:21:30;100249.93;;;27.42;26.00
72024;BME280;59889;50.700;5.440;2023-07-13T12:23:50;100258.76;;;27.24;26.00
72024;BME280;59889;50.700;5.440;2023-07-13T12:26:17;100252.20;;;27.71;25.63
72024;BME280;59889;50.700;5.440;2023-07-13T12:28:48;100246.92;;;27.37;25.64
72024;BME280;59889;50.700;5.440;2023-07-13T12:33:34;100254.25;;;27.41;25.31
72024;BME280;59889;50.700;5.440;2023-07-13T12:36:01;100250.59;;;27.35;25.34
72024;BME280;59889;50.700;5.440;2023-07-13T12:38:25;100250.04;;;27.37;25.25
72024;BME280;59889;50.700;5.440;2023-07-13T12:40:51;100245.12;;;27.25;25.30
72024;BME280;59889;50.700;5.440;2023-07-13T12:43:17;100253.10;;;27.38;25.07
72024;BME280;59889;50.700;5.440;2023-07-13T12:45:56;100253.13;;;27.37;25.02
72024;BME280;59889;50.700;5.440;2023-07-13T12:48:15;100254.78;;;27.30;24.84
72024;BME280;59889;50.700;5.440;2023-07-13T12:50:37;100248.68;;;27.34;24.77